Time;durP1;ratioP1;P1;durP2;ratioP2;P2;SDS_P1;SDS_P2;PMS_P1;PMS_P2;Temp;Humidity;BMP_temperature;BMP_pressure;BME280_temperature;BME280_humidity;BME280_pressure;Samples;Min_cycle;Max_cycle;Signal;HPM_P1;HPM_P2
2023/09/13 00:00:56;;;;;;;12.00;7.20;;;;;;;18.44;89.64;99763.52;104281;1259;60592;-60
2023/09/13 00:03:24;;;;;;;7.80;6.90;;;;;;;18.44;90.32;99763.36;104363;1253;60471;-60
2023/09/13 00:05:52;;;;;;;7.00;6.30;;;;;;;18.46;91.04;99761.62;104334;1260;74158;-60
2023/09/13 00:08:20;;;;;;;9.10;6.80;;;;;;;18.45;92.32;99765.52;104378;1259;69109;-61
2023/09/13 00:10:49;;;;;;;10.70;6.80;;;;;;;18.43;93.84;99764.81;104401;1256;72859;-60
2023/09/13 00:13:18;;;;;;;8.20;7.10;;;;;;;18.42;95.56;99766.34;104293;1256;61938;-61
2023/09/13 00:15:48;;;;;;;13.70;8.10;;;;;;;18.41;97.21;99762.65;104326;1256;60439;-60
2023/09/13 00:18:18;;;;;;;8.30;7.10;;;;;;;18.41;97.98;99763.17;104325;1274;73702;-60
2023/09/13 02:31:46;;;;;;;11.70;8.20;;;;;;;17.41;100.00;99730.20;101429;1291;601734;-61
2023/09/13 02:34:14;;;;;;;10.00;8.90;;;;;;;17.78;100.00;99726.57;103663;1266;62367;-60
2023/09/13 02:36:42;;;;;;;10.90;9.40;;;;;;;17.73;100.00;99727.12;103469;1271;59714;-61
2023/09/13 02:39:32;;;;;;;10.80;9.10;;;;;;;17.66;100.00;99723.85;103435;1288;71055;-59
2023/09/13 02:42:02;;;;;;;9.90;8.90;;;;;;;17.59;100.00;99727.40;103691;1288;69513;-60
2023/09/13 02:44:32;;;;;;;10.30;8.60;;;;;;;17.55;100.00;99728.57;103302;1267;391653;-60
2023/09/13 02:47:00;;;;;;;10.80;9.60;;;;;;;17.45;100.00;99729.26;103887;1265;62419;-61
2023/09/13 02:49:28;;;;;;;;;;;;;;;17.42;100.00;99731.27;103896;1263;59677;-60
2023/09/13 02:51:56;;;;;;;10.00;9.00;;;;;;;17.36;100.00;99730.25;103702;1286;71790;-60
2023/09/13 02:54:25;;;;;;;10.90;9.30;;;;;;;17.28;100.00;99731.51;103699;1271;69350;-59
2023/09/13 02:56:53;;;;;;;;;;;;;;;17.24;100.00;99734.09;103952;1271;72773;-60
2023/09/13 02:59:21;;;;;;;11.70;9.10;;;;;;;17.19;100.00;99737.45;103963;1264;61969;-61
2023/09/13 03:01:51;;;;;;;;;;;;;;;17.15;100.00;99741.98;104090;1267;59692;-60
2023/09/13 03:04:21;;;;;;;9.80;8.40;;;;;;;17.10;100.00;99742.77;103911;1263;72978;-59
2023/09/13 03:06:49;;;;;;;11.80;9.40;;;;;;;17.07;100.00;99742.53;103891;1269;69449;-60
2023/09/13 03:09:17;;;;;;;;;;;;;;;17.02;100.00;99742.17;103929;1285;72476;-60
2023/09/13 03:11:44;;;;;;;10.30;8.00;;;;;;;16.96;100.00;99742.34;103854;1269;61402;-61
2023/09/13 03:14:12;;;;;;;9.80;8.50;;;;;;;16.96;100.00;99745.72;103981;1264;60733;-60
2023/09/13 03:16:40;;;;;;;9.30;8.50;;;;;;;16.96;100.00;99747.52;103878;1268;72759;-59
2023/09/13 03:19:09;;;;;;;;;;;;;;;16.95;100.00;99746.48;103854;1286;69218;-60
2023/09/13 03:21:37;;;;;;;10.10;8.30;;;;;;;16.93;100.00;99742.55;103569;1286;72656;-61
2023/09/13 03:24:06;;;;;;;10.10;8.80;;;;;;;16.90;100.00;99740.45;104024;1264;62356;-59
2023/09/13 03:26:38;;;;;;;10.70;9.40;;;;;;;16.88;100.00;99742.33;103848;1270;59750;-59
2023/09/13 03:29:06;;;;;;;10.20;9.10;;;;;;;16.87;100.00;99742.80;104384;1275;71827;-60
2023/09/13 03:31:36;;;;;;;;;;;;;;;16.88;100.00;99741.27;104484;1260;69153;-60
2023/09/13 03:34:08;;;;;;;13.50;9.20;;;;;;;16.87;100.00;99742.08;104342;1256;72344;-59
2023/09/13 03:36:36;;;;;;;;;;;;;;;16.85;100.00;99741.52;104384;1253;60436;-60
2023/09/13 03:39:04;;;;;;;;;;;;;;;16.82;100.00;99745.39;104363;1259;59746;-59
2023/09/13 03:41:32;;;;;;;11.80;9.80;;;;;;;16.79;100.00;99746.84;104498;1251;73323;-59
2023/09/13 03:44:00;;;;;;;15.40;10.00;;;;;;;16.80;100.00;99747.30;104454;1260;68404;-59
2023/09/13 03:46:28;;;;;;;10.40;9.30;;;;;;;16.80;100.00;99747.27;104267;1275;72344;-59
2023/09/13 03:48:57;;;;;;;12.30;10.10;;;;;;;16.80;100.00;99752.96;104300;1257;61531;-59
2023/09/13 03:51:26;;;;;;;13.40;10.80;;;;;;;16.79;100.00;99754.96;104313;1260;60312;-59
2023/09/13 03:53:54;;;;;;;11.30;10.10;;;;;;;16.80;100.00;99757.90;104276;1275;71421;-59
2023/09/13 03:56:22;;;;;;;11.60;10.00;;;;;;;16.80;100.00;99761.29;104276;1275;69226;-59
2023/09/13 03:58:53;;;;;;;12.50;10.60;;;;;;;16.79;100.00;99759.21;104241;1254;72615;-59
2023/09/13 04:01:21;;;;;;;11.40;10.00;;;;;;;16.77;100.00;99756.89;104484;1254;61415;-60
2023/09/13 04:03:49;;;;;;;;;;;;;;;16.78;100.00;99760.37;104322;1258;59772;-59
2023/09/13 04:06:17;;;;;;;11.50;10.10;;;;;;;16.77;100.00;99761.27;104356;1257;73001;-60
2023/09/13 04:08:47;;;;;;;13.70;10.00;;;;;;;16.78;100.00;99759.63;104297;1257;69573;-61
2023/09/13 04:11:14;;;;;;;14.00;9.80;;;;;;;16.81;100.00;99762.26;104295;1253;72377;-60
2023/09/13 04:13:42;;;;;;;13.50;10.60;;;;;;;16.83;100.00;99756.86;104270;1256;62367;-59
2023/09/13 04:16:15;;;;;;;12.90;10.20;;;;;;;16.87;100.00;99758.70;104303;1267;59684;-60
2023/09/13 04:18:46;;;;;;;11.60;9.70;;;;;;;16.91;100.00;99762.88;104308;1274;72829;-61
2023/09/13 04:21:15;;;;;;;12.20;10.10;;;;;;;16.93;100.00;99757.96;104341;1274;69668;-60
2023/09/13 04:23:43;;;;;;;;;;;;;;;16.98;100.00;99759.73;104323;1254;73331;-61
2023/09/13 04:26:13;;;;;;;14.30;10.50;;;;;;;17.01;100.00;99760.41;104873;1254;61332;-60
2023/09/13 04:28:41;;;;;;;14.50;10.70;;;;;;;17.06;100.00;99761.64;104427;1254;59729;-60
2023/09/13 04:31:12;;;;;;;11.90;10.70;;;;;;;17.08;100.00;99762.98;104251;1257;75167;-60
2023/09/13 04:33:52;;;;;;;12.80;11.40;;;;;;;17.12;100.00;99764.30;104428;1256;69330;-60
2023/09/13 04:36:26;;;;;;;12.40;11.00;;;;;;;17.14;100.00;99765.76;104347;1254;71481;-59
2023/09/13 04:38:55;;;;;;;11.80;10.60;;;;;;;17.22;100.00;99767.34;104254;1257;61461;-60
2023/09/13 04:41:24;;;;;;;11.60;10.40;;;;;;;17.26;100.00;99768.84;104303;1260;59670;-61
2023/09/13 04:43:54;;;;;;;17.10;11.20;;;;;;;17.34;100.00;99770.42;104448;1251;73199;-60
2023/09/13 04:46:22;;;;;;;12.10;10.80;;;;;;;17.42;100.00;99767.92;104441;1256;69637;-60
2023/09/13 04:48:50;;;;;;;17.10;11.60;;;;;;;17.46;100.00;99770.45;104284;1259;71606;-59
2023/09/13 04:51:17;;;;;;;14.90;11.20;;;;;;;17.54;100.00;99767.99;104320;1254;62331;-59
2023/09/13 04:53:45;;;;;;;;;;;;;;;17.60;100.00;99766.83;104328;1260;59785;-60
2023/09/13 04:56:13;;;;;;;15.10;10.60;;;;;;;17.68;100.00;99769.27;104261;1257;72859;-60
2023/09/13 04:58:44;;;;;;;13.80;11.80;;;;;;;17.72;100.00;99770.61;104790;1254;70332;-61
2023/09/13 05:01:12;;;;;;;;;;;;;;;17.82;100.00;99770.11;104396;1254;72493;-59
2023/09/13 05:03:45;;;;;;;12.70;11.40;;;;;;;17.88;100.00;99771.23;104259;1258;61396;-58
2023/09/13 05:06:15;;;;;;;16.60;11.60;;;;;;;17.97;100.00;99769.45;104417;1254;59902;-60
2023/09/13 05:08:45;;;;;;;13.90;11.60;;;;;;;18.04;100.00;99770.83;104311;1276;72943;-62
2023/09/13 05:11:13;;;;;;;13.70;11.20;;;;;;;18.11;100.00;99771.06;104418;1267;69152;-61
2023/09/13 05:13:41;;;;;;;12.60;10.60;;;;;;;18.22;100.00;99772.04;104354;1274;72287;-60
2023/09/13 05:16:12;;;;;;;12.60;10.90;;;;;;;18.31;100.00;99771.77;104255;1257;61449;-58
2023/09/13 05:18:40;;;;;;;13.60;11.80;;;;;;;18.39;100.00;99771.52;104234;1256;59857;-59
2023/09/13 05:21:08;;;;;;;;;;;;;;;18.50;100.00;99772.27;104334;1256;72892;-59
2023/09/13 05:23:36;;;;;;;13.70;10.70;;;;;;;18.53;100.00;99776.36;104346;1257;69473;-59
2023/09/13 05:26:04;;;;;;;13.50;11.00;;;;;;;18.57;100.00;99777.30;104366;1254;73375;-61
2023/09/13 05:28:33;;;;;;;12.80;11.50;;;;;;;18.65;100.00;99778.48;104298;1252;61400;-61
2023/09/13 05:31:01;;;;;;;12.10;10.90;;;;;;;18.75;100.00;99780.21;104348;1256;59708;-60
2023/09/13 05:33:29;;;;;;;;;;;;;;;18.81;100.00;99777.48;104330;1275;71979;-59
2023/09/13 05:35:57;;;;;;;11.60;10.30;;;;;;;18.86;100.00;99771.78;104381;1259;69156;-61
2023/09/13 05:38:27;;;;;;;9.80;8.70;;;;;;;18.94;100.00;99771.54;104516;1255;71631;-61
2023/09/13 05:40:54;;;;;;;15.50;8.70;;;;;;;19.02;100.00;99768.80;104277;1253;61390;-60
2023/09/13 05:43:22;;;;;;;;;;;;;;;19.11;100.00;99768.63;104366;1261;59882;-61
2023/09/13 05:45:50;;;;;;;14.50;8.70;;;;;;;19.22;100.00;99772.61;104346;1276;73526;-61
2023/09/13 05:48:18;;;;;;;;;;;;;;;19.28;100.00;99772.70;104307;1254;68259;-60
2023/09/13 05:50:46;;;;;;;9.20;7.70;;;;;;;19.33;100.00;99769.11;104346;1276;72364;-61
2023/09/13 05:53:15;;;;;;;9.30;8.00;;;;;;;19.39;100.00;99770.38;104238;1254;61407;-59
2023/09/13 05:55:43;;;;;;;12.30;8.50;;;;;;;19.50;100.00;99774.59;104367;1260;60084;-59
2023/09/13 05:58:11;;;;;;;11.50;9.00;;;;;;;19.57;100.00;99775.25;104315;1254;73131;-59
2023/09/13 06:00:42;;;;;;;13.60;8.70;;;;;;;19.65;100.00;99773.54;104309;1259;69212;-59
2023/09/13 06:03:10;;;;;;;15.40;9.70;;;;;;;19.77;100.00;99775.65;104257;1259;72880;-60
2023/09/13 06:05:38;;;;;;;;;;;;;;;19.86;100.00;99780.31;104344;1256;62361;-59
2023/09/13 06:08:08;;;;;;;9.10;7.40;;;;;;;19.96;100.00;99775.09;104290;1253;59656;-59
2023/09/13 06:10:36;;;;;;;10.60;8.30;;;;;;;20.04;100.00;99773.49;104294;1259;73261;-59
2023/09/13 06:13:04;;;;;;;;;;;;;;;20.11;100.00;99772.41;104318;1257;70103;-58
2023/09/13 06:15:32;;;;;;;8.60;6.50;;;;;;;20.20;99.91;99775.96;104473;1256;72886;-59
2023/09/13 06:17:59;;;;;;;;;;;;;;;20.28;99.62;99777.66;104317;1254;61427;-59
2023/09/13 06:20:28;;;;;;;12.50;6.60;;;;;;;20.37;98.83;99779.42;104224;1255;59867;-60
2023/09/13 06:22:55;;;;;;;;;;;;;;;20.45;98.19;99778.80;104300;1276;72801;-59
2023/09/13 06:25:23;;;;;;;;;;;;;;;20.50;97.08;99778.53;104320;1276;69714;-58
2023/09/13 06:27:51;;;;;;;;;;;;;;;20.50;96.55;99778.56;104314;1254;73053;-59
2023/09/13 06:30:19;;;;;;;9.10;6.90;;;;;;;20.58;95.02;99779.30;104280;1255;61354;-59
2023/09/13 06:32:49;;;;;;;14.90;7.20;;;;;;;20.65;95.57;99776.63;104252;1254;60537;-59
2023/09/13 06:35:37;;;;;;;10.00;7.10;;;;;;;20.73;91.02;99773.84;104308;1257;72913;-60
2023/09/13 06:38:05;;;;;;;7.60;6.70;;;;;;;20.84;88.85;99775.63;104337;1276;70008;-59
2023/09/13 06:40:35;;;;;;;9.70;6.90;;;;;;;20.97;86.84;99773.09;104257;1257;72487;-59
2023/09/13 06:43:04;;;;;;;9.00;6.50;;;;;;;21.08;85.21;99773.08;104354;1254;62402;-59
2023/09/13 06:45:46;;;;;;;11.40;6.50;;;;;;;21.20;82.74;99774.37;104326;1257;61414;-60
2023/09/13 06:48:19;;;;;;;11.90;7.10;;;;;;;21.31;82.33;99773.27;104267;1260;73761;-60
2023/09/13 06:50:48;;;;;;;7.40;6.50;;;;;;;21.42;79.90;99771.73;104291;1269;69027;-59
2023/09/13 06:53:36;;;;;;;11.10;6.80;;;;;;;21.53;79.01;99777.06;104284;1258;72508;-59
2023/09/13 06:56:04;;;;;;;12.90;6.80;;;;;;;21.64;78.32;99773.30;104321;1254;62390;-59
2023/09/13 06:58:38;;;;;;;8.50;6.50;;;;;;;21.75;78.05;99772.88;104266;1258;60571;-58
2023/09/13 07:01:13;;;;;;;10.90;6.90;;;;;;;21.86;78.17;99772.77;104267;1277;73572;-58
2023/09/13 07:04:03;;;;;;;9.30;6.40;;;;;;;21.98;75.33;99774.97;104270;1259;69119;-58
2023/09/13 07:06:38;;;;;;;7.10;6.00;;;;;;;22.11;70.42;99773.05;104248;1254;73438;-58
2023/09/13 07:09:06;;;;;;;11.30;6.50;;;;;;;22.24;72.20;99775.90;104385;1254;61457;-58
2023/09/13 07:11:34;;;;;;;9.50;6.70;;;;;;;22.33;69.45;99772.80;104320;1258;60559;-58
2023/09/13 07:14:03;;;;;;;9.30;7.00;;;;;;;22.51;67.66;99770.80;104288;1259;73085;-59
2023/09/13 07:16:31;;;;;;;9.60;6.30;;;;;;;22.67;68.21;99770.05;104325;1260;69350;-61
2023/09/13 07:19:03;;;;;;;;;;;;;;;22.75;66.75;99774.63;104399;1265;72294;-59
2023/09/13 07:21:31;;;;;;;9.90;6.00;;;;;;;22.90;64.93;99777.36;104743;1257;61189;-57
2023/09/13 07:23:58;;;;;;;7.00;5.50;;;;;;;22.98;63.87;99776.48;104494;1254;60506;-56
2023/09/13 07:26:26;;;;;;;9.50;5.80;;;;;;;23.08;63.21;99776.25;104261;1276;74159;-57
2023/09/13 07:28:54;;;;;;;14.70;6.00;;;;;;;23.24;61.87;99771.63;104504;1258;70120;-57
2023/09/13 07:31:23;;;;;;;7.30;5.60;;;;;;;23.35;60.00;99773.95;104266;1260;72410;-60
2023/09/13 07:33:51;;;;;;;8.70;5.70;;;;;;;23.49;57.91;99768.86;104474;1254;60863;-60
2023/09/13 07:36:18;;;;;;;9.50;6.00;;;;;;;23.59;58.12;99770.81;104341;1258;60463;-60
2023/09/13 07:38:46;;;;;;;;;;;;;;;23.72;55.54;99769.23;104297;1256;74491;-58
2023/09/13 07:41:17;;;;;;;9.10;5.70;;;;;;;23.81;54.20;99765.86;104303;1259;69976;-57
2023/09/13 07:43:45;;;;;;;15.20;6.50;;;;;;;23.88;55.58;99763.19;104339;1257;72350;-59
2023/09/13 07:46:15;;;;;;;10.30;5.00;;;;;;;23.99;56.26;99768.27;104316;1276;60508;-59
2023/09/13 07:48:43;;;;;;;;;;;;;;;24.12;54.16;99768.41;104418;1254;60322;-59
2023/09/13 07:51:11;;;;;;;11.10;5.20;;;;;;;24.24;52.46;99768.30;104300;1276;73621;-58
2023/09/13 07:53:41;;;;;;;11.50;5.30;;;;;;;24.31;51.89;99765.45;104665;1257;69703;-59
2023/09/13 07:56:09;;;;;;;8.00;5.50;;;;;;;24.43;51.26;99766.42;104409;1256;72409;-58
2023/09/13 07:58:37;;;;;;;8.30;5.00;;;;;;;24.54;50.91;99765.21;104489;1260;60543;-58
2023/09/13 08:01:05;;;;;;;7.50;5.80;;;;;;;24.62;49.01;99764.77;104343;1255;60751;-58
2023/09/13 08:03:33;;;;;;;;;;;;;;;24.69;48.76;99761.44;104517;1254;74827;-58
2023/09/13 08:06:03;;;;;;;8.10;5.90;;;;;;;24.78;49.51;99756.73;104416;1258;69173;-59
2023/09/13 08:08:33;;;;;;;11.70;6.00;;;;;;;24.86;49.29;99754.85;104436;1267;73218;-58
2023/09/13 08:11:01;;;;;;;11.20;5.10;;;;;;;24.99;49.68;99752.65;104531;1253;60771;-60
2023/09/13 08:13:28;;;;;;;9.80;5.70;;;;;;;25.10;49.02;99751.88;104310;1256;60537;-60
2023/09/13 08:15:56;;;;;;;9.00;5.60;;;;;;;25.19;48.58;99747.79;104330;1254;73650;-59
2023/09/13 08:18:24;;;;;;;10.30;5.90;;;;;;;25.29;48.07;99749.09;104308;1254;70035;-59
2023/09/13 08:20:53;;;;;;;10.20;5.90;;;;;;;25.41;47.53;99750.01;104452;1256;72430;-60
2023/09/13 08:23:21;;;;;;;7.80;5.40;;;;;;;25.50;47.64;99742.95;104281;1276;60578;-60
2023/09/13 08:25:51;;;;;;;6.50;5.70;;;;;;;25.58;46.92;99740.66;104345;1276;61589;-60
2023/09/13 08:28:20;;;;;;;17.00;6.50;;;;;;;25.71;47.19;99739.73;104285;1275;73107;-58
2023/09/13 08:30:49;;;;;;;12.60;6.00;;;;;;;25.80;47.67;99740.49;104253;1256;71658;-59
2023/09/13 08:33:17;;;;;;;9.90;6.30;;;;;;;25.90;47.58;99739.84;104391;1259;72000;-58
2023/09/13 08:35:47;;;;;;;8.20;6.70;;;;;;;25.99;47.71;99740.90;107164;1253;60027;-60
2023/09/13 08:38:15;;;;;;;15.20;7.90;;;;;;;26.12;47.79;99737.98;104386;1254;60543;-60
2023/09/13 08:40:45;;;;;;;8.50;6.10;;;;;;;26.23;47.21;99741.21;104201;1259;76514;-61
2023/09/13 08:43:13;;;;;;;15.50;6.30;;;;;;;26.31;47.08;99742.57;104331;1275;72928;-60
2023/09/13 08:45:48;;;;;;;7.00;5.50;;;;;;;26.38;47.20;99742.84;104321;1254;72531;-60
2023/09/13 08:48:16;;;;;;;9.40;5.70;;;;;;;26.48;46.35;99741.60;104230;1254;60552;-60
2023/09/13 08:50:44;;;;;;;10.20;5.60;;;;;;;26.60;46.20;99739.81;104566;1252;60587;-61
2023/09/13 08:53:12;;;;;;;10.80;6.00;;;;;;;26.67;46.38;99735.98;104411;1266;74071;-59
2023/09/13 08:55:40;;;;;;;10.60;5.60;;;;;;;26.77;46.07;99739.58;104447;1259;69108;-60
2023/09/13 08:58:08;;;;;;;;;;;;;;;26.86;45.14;99739.16;104322;1275;73355;-60
2023/09/13 09:00:39;;;;;;;7.80;5.00;;;;;;;26.95;44.84;99734.23;104471;1254;60517;-61
2023/09/13 09:03:07;;;;;;;7.40;5.50;;;;;;;26.98;45.12;99729.14;104545;1254;60562;-62
2023/09/13 09:05:35;;;;;;;8.90;5.10;;;;;;;27.07;44.40;99729.41;104443;1256;73931;-60
2023/09/13 09:08:03;;;;;;;11.50;5.40;;;;;;;27.20;43.36;99725.48;104466;1264;69682;-61
2023/09/13 09:10:31;;;;;;;7.60;5.40;;;;;;;27.35;43.17;99721.63;104344;1254;72776;-59
2023/09/13 09:12:59;;;;;;;10.90;5.00;;;;;;;27.44;42.54;99719.28;104455;1254;60538;-58
2023/09/13 09:15:27;;;;;;;10.80;5.70;;;;;;;27.52;41.93;99717.77;104401;1270;59575;-59
2023/09/13 09:17:55;;;;;;;13.00;4.40;;;;;;;27.59;40.83;99715.89;104267;1263;73970;-58
2023/09/13 09:20:28;;;;;;;7.30;4.30;;;;;;;27.66;40.07;99716.44;104289;1275;69194;-62
2023/09/13 09:22:57;;;;;;;12.80;4.20;;;;;;;27.69;39.69;99718.35;104292;1275;72419;-59
2023/09/13 09:25:25;;;;;;;12.70;4.30;;;;;;;27.79;38.91;99714.86;104780;1256;60609;-59
2023/09/13 09:27:53;;;;;;;5.70;3.90;;;;;;;27.88;38.84;99712.11;104576;1261;62572;-59
2023/09/13 09:30:33;;;;;;;7.40;3.70;;;;;;;27.96;39.07;99710.42;104379;1254;73945;-60
2023/09/13 09:33:03;;;;;;;8.10;4.40;;;;;;;28.08;38.25;99707.80;104204;1275;70013;-61
2023/09/13 09:35:31;;;;;;;8.30;4.30;;;;;;;28.14;37.56;99705.03;104261;1275;72607;-62
2023/09/13 09:37:59;;;;;;;4.30;3.90;;;;;;;28.22;37.16;99704.11;104400;1256;60561;-60
2023/09/13 09:40:29;;;;;;;8.50;4.40;;;;;;;28.34;37.11;99704.27;106568;1253;60482;-61
2023/09/13 09:42:57;;;;;;;10.40;3.80;;;;;;;28.44;37.04;99697.94;104535;1268;74022;-61
2023/09/13 09:45:25;;;;;;;9.10;4.10;;;;;;;28.47;38.07;99698.79;104395;1257;72467;-60
2023/09/13 09:47:53;;;;;;;13.60;4.10;;;;;;;28.52;38.46;99699.85;104252;1254;72962;-60
2023/09/13 09:50:21;;;;;;;7.20;3.80;;;;;;;28.59;38.10;99691.71;106655;1252;61518;-61
2023/09/13 09:52:52;;;;;;;7.00;3.60;;;;;;;28.63;37.05;99691.38;104495;1258;60625;-62
2023/09/13 09:55:21;;;;;;;6.60;3.90;;;;;;;28.72;36.96;99693.55;104518;1254;73627;-61
2023/09/13 09:57:51;;;;;;;11.10;3.70;;;;;;;28.83;36.43;99693.36;104467;1270;70078;-62
2023/09/13 10:00:19;;;;;;;6.60;3.60;;;;;;;28.90;35.71;99686.87;104497;1275;74869;-60
2023/09/13 10:02:47;;;;;;;9.20;4.00;;;;;;;28.94;35.07;99684.09;104404;1257;60630;-61
2023/09/13 10:05:18;;;;;;;6.10;4.10;;;;;;;28.96;34.51;99684.95;104668;1253;61103;-61
2023/09/13 10:07:50;;;;;;;6.80;3.60;;;;;;;28.99;34.96;99679.71;104794;1256;74307;-60
2023/09/13 10:10:29;;;;;;;5.80;3.80;;;;;;;29.03;35.17;99684.85;104438;1253;68516;-62
2023/09/13 10:12:57;;;;;;;6.10;3.50;;;;;;;29.10;34.50;99679.77;104322;1275;72882;-61
2023/09/13 10:15:27;;;;;;;12.30;3.60;;;;;;;29.18;33.83;99677.05;104286;1275;60945;-61
2023/09/13 10:17:57;;;;;;;8.80;3.70;;;;;;;29.25;33.31;99675.48;104401;1254;60556;-61
2023/09/13 10:20:25;;;;;;;4.90;3.50;;;;;;;29.36;32.92;99677.70;104289;1257;74320;-60
2023/09/13 10:22:55;;;;;;;6.10;3.30;;;;;;;29.40;33.14;99672.77;104380;1260;71508;-61
2023/09/13 10:25:24;;;;;;;15.60;4.50;;;;;;;29.46;33.16;99669.02;104741;1254;72944;-59
2023/09/13 10:27:54;;;;;;;4.60;3.60;;;;;;;29.50;33.23;99668.91;104490;1263;61000;-58
2023/09/13 10:30:24;;;;;;;5.70;4.00;;;;;;;29.57;32.94;99668.04;104543;1252;60782;-59
2023/09/13 10:32:58;;;;;;;6.40;4.00;;;;;;;29.62;33.10;99660.85;104482;1275;73543;-59
2023/09/13 10:35:29;;;;;;;6.90;3.90;;;;;;;29.64;33.15;99662.42;104449;1256;69670;-59
2023/09/13 10:38:19;;;;;;;13.40;3.70;;;;;;;29.75;32.59;99663.15;104442;1256;72351;-60
2023/09/13 10:40:53;;;;;;;9.10;3.50;;;;;;;29.81;31.49;99661.81;105249;1256;62018;-59
2023/09/13 10:43:21;;;;;;;6.60;3.70;;;;;;;29.89;32.17;99659.21;104612;1254;60555;-60
2023/09/13 10:45:49;;;;;;;6.80;3.70;;;;;;;29.95;32.15;99657.56;104677;1253;77096;-60
2023/09/13 10:48:17;;;;;;;8.50;3.80;;;;;;;30.00;32.54;99662.74;104294;1259;68782;-60
2023/09/13 10:50:45;;;;;;;;;;;;;;;30.04;32.04;99662.25;104580;1253;71651;-60
2023/09/13 10:53:14;;;;;;;7.50;3.60;;;;;;;30.06;31.61;99659.08;104335;1256;61162;-60
2023/09/13 10:55:43;;;;;;;8.70;3.60;;;;;;;30.10;30.77;99650.67;104565;1252;60520;-60
2023/09/13 10:58:18;;;;;;;8.00;3.70;;;;;;;30.14;31.68;99647.34;104450;1264;73628;-60
2023/09/13 11:00:50;;;;;;;3.90;3.50;;;;;;;30.20;31.39;99648.65;104616;1260;69155;-60
2023/09/13 11:03:18;;;;;;;11.60;3.60;;;;;;;30.24;31.48;99646.12;104280;1259;72890;-60
2023/09/13 11:05:51;;;;;;;6.90;3.80;;;;;;;30.26;31.61;99645.17;104296;1257;60597;-60
2023/09/13 11:08:31;;;;;;;7.30;3.60;;;;;;;30.34;31.25;99642.46;104315;1252;60638;-61
2023/09/13 11:11:14;;;;;;;9.00;3.50;;;;;;;30.40;31.14;99630.21;104735;1256;73386;-61
2023/09/13 11:13:46;;;;;;;7.00;3.10;;;;;;;30.52;30.24;99639.63;104286;1256;69633;-59
2023/09/13 11:16:15;;;;;;;6.30;3.40;;;;;;;30.55;30.35;99634.02;104535;1256;73321;-60
2023/09/13 11:18:48;;;;;;;5.90;3.00;;;;;;;30.60;29.90;99633.56;104504;1256;60745;-60
2023/09/13 11:21:39;;;;;;;6.90;2.90;;;;;;;30.65;29.56;99632.70;104432;1257;60459;-60
2023/09/13 11:24:07;;;;;;;4.90;3.00;;;;;;;30.66;29.28;99623.85;104481;1257;73612;-59
2023/09/13 11:26:54;;;;;;;4.00;3.20;;;;;;;30.70;28.89;99616.29;104533;1254;69143;-60
2023/09/13 11:29:26;;;;;;;5.50;3.40;;;;;;;30.79;30.04;99621.11;104291;1254;72455;-61
2023/09/13 11:32:03;;;;;;;7.70;2.90;;;;;;;30.90;29.53;99625.88;104344;1254;60559;-60
2023/09/13 11:34:36;;;;;;;4.20;2.80;;;;;;;30.93;28.80;99623.91;104314;1253;60444;-60
2023/09/13 11:37:07;;;;;;;7.20;2.90;;;;;;;30.94;28.37;99620.41;104348;1257;74372;-60
2023/09/13 11:39:35;;;;;;;4.80;3.20;;;;;;;30.98;28.94;99619.05;104312;1255;69055;-60
2023/09/13 11:42:04;;;;;;;9.90;3.20;;;;;;;31.04;28.42;99616.80;104284;1275;72234;-61
2023/09/13 11:44:32;;;;;;;5.70;3.30;;;;;;;31.03;28.43;99620.43;104441;1254;62150;-61
2023/09/13 11:47:01;;;;;;;6.20;3.50;;;;;;;31.02;28.53;99615.98;104474;1254;60562;-60
2023/09/13 11:49:29;;;;;;;8.40;3.30;;;;;;;31.06;28.25;99614.67;104312;1259;74160;-60
2023/09/13 11:52:00;;;;;;;3.10;2.80;;;;;;;31.09;28.92;99613.40;104268;1261;71975;-60
2023/09/13 11:54:56;;;;;;;7.20;3.00;;;;;;;31.11;27.86;99606.52;104886;1256;71570;-58
2023/09/13 11:57:49;;;;;;;9.10;3.30;;;;;;;31.10;27.82;99597.99;104586;1260;60540;-60
2023/09/13 12:00:25;;;;;;;8.60;3.20;;;;;;;31.11;28.02;99597.86;104360;1258;60521;-59
2023/09/13 12:02:56;;;;;;;7.10;2.90;;;;;;;31.09;28.24;99599.23;104380;1267;73703;-60
2023/09/13 12:05:28;;;;;;;3.30;2.90;;;;;;;31.13;28.20;99596.10;104485;1257;69209;-59
2023/09/13 12:08:27;;;;;;;4.10;2.90;;;;;;;31.23;27.80;99597.23;104345;1254;75108;-59
2023/09/13 12:11:05;;;;;;;4.50;3.00;;;;;;;31.32;28.05;99594.71;104607;1257;60632;-59
2023/09/13 12:13:46;;;;;;;7.60;3.40;;;;;;;31.38;27.88;99591.41;104576;1256;60408;-60
2023/09/13 12:16:36;;;;;;;6.60;2.80;;;;;;;31.44;28.21;99589.88;104573;1257;73581;-58
2023/09/13 12:19:05;;;;;;;5.30;2.30;;;;;;;31.47;28.24;99584.98;104283;1275;68997;-59
2023/09/13 12:21:33;;;;;;;5.30;3.10;;;;;;;31.56;27.91;99577.63;104343;1256;72694;-59
2023/09/13 12:24:02;;;;;;;9.70;3.20;;;;;;;31.61;27.98;99575.21;104358;1266;60639;-58
2023/09/13 12:26:30;;;;;;;5.80;2.80;;;;;;;31.68;27.85;99571.90;104280;1260;60840;-59
2023/09/13 12:28:58;;;;;;;;;;;;;;;31.77;27.98;99571.62;104266;1276;74390;-59
2023/09/13 12:31:26;;;;;;;5.60;2.70;;;;;;;31.79;27.72;99564.81;104372;1257;69972;-59
2023/09/13 12:33:55;;;;;;;8.00;3.20;;;;;;;31.72;27.50;99566.84;104306;1254;73152;-59
2023/09/13 12:36:24;;;;;;;5.10;2.70;;;;;;;31.79;27.19;99560.98;104305;1276;60552;-59
2023/09/13 12:38:53;;;;;;;9.70;3.60;;;;;;;31.89;27.37;99560.98;104292;1262;60553;-60
2023/09/13 12:41:22;;;;;;;4.90;2.70;;;;;;;32.01;27.13;99559.92;104438;1257;74295;-59
2023/09/13 12:43:50;;;;;;;11.00;3.00;;;;;;;32.07;27.26;99561.54;104495;1267;70152;-60
2023/09/13 12:46:22;;;;;;;11.90;3.60;;;;;;;32.10;27.13;99562.52;104258;1256;73357;-60
2023/09/13 12:48:50;;;;;;;6.30;4.20;;;;;;;32.20;26.68;99564.77;104242;1266;59958;-59
2023/09/13 12:51:23;;;;;;;8.90;3.70;;;;;;;32.29;26.55;99563.21;104254;1256;60408;-59
2023/09/13 12:53:51;;;;;;;8.10;2.70;;;;;;;32.40;26.79;99557.32;104253;1275;74107;-60
2023/09/13 12:56:19;;;;;;;7.60;3.00;;;;;;;32.48;26.45;99559.03;104453;1253;69123;-59
2023/09/13 12:58:48;;;;;;;5.90;2.80;;;;;;;32.55;26.57;99555.80;104342;1256;72776;-59
2023/09/13 13:01:15;;;;;;;9.20;2.70;;;;;;;32.61;26.56;99554.19;104352;1267;63052;-58
2023/09/13 13:04:06;;;;;;;7.50;3.00;;;;;;;32.75;26.73;99553.30;104302;1254;62572;-59
2023/09/13 13:07:04;;;;;;;5.40;2.70;;;;;;;32.90;26.66;99553.46;104296;1254;73713;-58
2023/09/13 13:09:32;;;;;;;5.20;2.60;;;;;;;33.04;26.69;99551.95;104228;1275;69176;-58
2023/09/13 13:12:00;;;;;;;6.60;2.60;;;;;;;33.11;26.34;99547.59;104371;1256;73717;-58
2023/09/13 13:14:29;;;;;;;5.50;2.50;;;;;;;33.26;26.02;99551.16;104413;1256;60701;-58
2023/09/13 13:17:01;;;;;;;6.40;3.00;;;;;;;33.41;26.31;99549.73;104384;1269;59655;-58
2023/09/13 13:19:30;;;;;;;9.60;3.00;;;;;;;33.47;25.89;99549.70;104155;1259;73883;-58
2023/09/13 13:22:19;;;;;;;4.40;2.60;;;;;;;33.44;25.87;99546.63;104383;1267;70181;-59
2023/09/13 13:24:47;;;;;;;3.90;2.80;;;;;;;33.39;25.70;99541.20;104492;1256;72379;-59
2023/09/13 13:27:17;;;;;;;6.20;2.80;;;;;;;33.46;25.83;99540.41;104314;1256;60012;-59
2023/09/13 13:29:44;;;;;;;7.00;3.10;;;;;;;33.57;25.75;99540.60;104195;1275;60591;-59
2023/09/13 13:32:12;;;;;;;;;;;;;;;33.70;25.70;99533.09;104391;1259;74253;-58
2023/09/13 13:34:40;;;;;;;7.40;2.70;;;;;;;33.83;25.33;99528.89;104440;1257;70393;-59
2023/09/13 13:37:08;;;;;;;11.10;2.80;;;;;;;33.96;24.95;99526.53;104620;1257;72420;-59
2023/09/13 13:39:36;;;;;;;7.10;2.70;;;;;;;34.15;25.05;99526.58;104228;1256;60558;-59
2023/09/13 13:42:04;;;;;;;8.50;2.60;;;;;;;34.14;25.14;99524.85;107175;1253;60352;-58
2023/09/13 13:44:34;;;;;;;4.40;2.60;;;;;;;34.00;25.23;99523.03;104276;1257;73600;-58
2023/09/13 13:47:04;;;;;;;7.00;2.90;;;;;;;33.79;25.68;99529.13;104481;1256;70174;-58
2023/09/13 13:49:32;;;;;;;8.60;2.50;;;;;;;33.57;25.98;99527.69;104381;1257;73357;-59